createdAt,value
2022-12-08T00:01:51.982Z,200.10
2022-12-08T00:04:23.748Z,204.60
2022-12-08T00:07:10.029Z,219.50
2022-12-08T00:09:40.724Z,201.50
2022-12-08T00:12:13.453Z,210.13
2022-12-08T00:14:43.453Z,202.20
2022-12-08T00:17:12.898Z,195.20
2022-12-08T00:19:40.718Z,191.63
2022-12-08T00:22:11.797Z,191.00
2022-12-08T00:24:40.957Z,218.23
2022-12-08T00:27:09.860Z,198.43
2022-12-08T00:29:36.965Z,226.18
2022-12-08T00:32:05.655Z,207.93
2022-12-08T00:34:33.779Z,221.70
2022-12-08T00:37:01.322Z,212.35
2022-12-08T00:39:30.318Z,216.55
2022-12-08T00:42:14.793Z,205.57
2022-12-08T00:44:44.059Z,211.55
2022-12-08T00:47:13.898Z,210.07
2022-12-08T00:49:41.626Z,197.20
2022-12-08T00:52:09.144Z,192.75
2022-12-08T00:54:36.365Z,202.02
2022-12-08T00:57:04.539Z,209.35
2022-12-08T00:59:31.506Z,203.18
2022-12-08T01:02:01.436Z,189.07
2022-12-08T01:04:28.419Z,196.70
2022-12-08T01:06:57.565Z,178.43
2022-12-08T01:09:25.081Z,187.18
2022-12-08T01:11:53.819Z,164.27
2022-12-08T01:14:21.229Z,176.45
2022-12-08T01:16:48.638Z,175.10
2022-12-08T01:19:16.487Z,191.82
2022-12-08T01:21:47.739Z,188.98
2022-12-08T01:24:20.188Z,208.48
2022-12-08T01:26:49.954Z,188.32
2022-12-08T01:29:19.201Z,191.10
2022-12-08T01:31:48.764Z,217.05
2022-12-08T01:34:20.497Z,211.73
2022-12-08T01:36:52.534Z,222.70
2022-12-08T01:39:20.165Z,193.45
2022-12-08T01:41:49.213Z,211.10
2022-12-08T01:44:18.719Z,182.95
2022-12-08T01:46:56.025Z,186.27
2022-12-08T01:49:31.211Z,197.18
2022-12-08T01:52:13.373Z,191.98
2022-12-08T01:54:50.162Z,192.00
2022-12-08T01:57:55.904Z,192.85
2022-12-08T02:00:28.175Z,184.75
2022-12-08T02:03:04.940Z,192.85
2022-12-08T02:05:36.218Z,205.85
2022-12-08T02:08:07.196Z,172.25
2022-12-08T02:10:37.789Z,167.10
2022-12-08T02:13:14.882Z,174.88
2022-12-08T02:16:00.216Z,167.05
2022-12-08T02:18:40.806Z,168.15
2022-12-08T02:21:29.741Z,184.75
2022-12-08T02:24:05.617Z,164.63
2022-12-08T02:27:06.071Z,201.18
2022-12-08T02:30:07.143Z,178.73
2022-12-08T02:32:43.412Z,170.88
2022-12-08T02:35:28.537Z,182.20
2022-12-08T02:38:20.756Z,172.48
2022-12-08T02:41:15.244Z,146.32
2022-12-08T02:43:46.730Z,129.05
2022-12-08T02:46:23.029Z,135.70
2022-12-08T02:48:52.636Z,134.50
2022-12-08T02:51:20.235Z,145.68
2022-12-08T02:53:48.900Z,156.48
2022-12-08T02:56:35.895Z,161.10
2022-12-08T02:59:26.880Z,139.52
2022-12-08T03:02:46.983Z,166.10
2022-12-08T03:05:18.827Z,162.60
2022-12-08T03:08:16.416Z,165.75
2022-12-08T03:10:53.303Z,147.43
2022-12-08T03:13:30.236Z,131.07
2022-12-08T03:16:01.378Z,134.00
2022-12-08T03:18:31.701Z,146.80
2022-12-08T03:21:00.404Z,143.18
2022-12-08T03:23:31.513Z,115.47
2022-12-08T03:26:09.015Z,129.38
2022-12-08T03:28:36.179Z,120.88
2022-12-08T03:31:07.997Z,114.35
2022-12-08T03:33:40.903Z,122.90
2022-12-08T03:36:10.384Z,145.88
2022-12-08T03:38:50.269Z,135.15
2022-12-08T03:41:21.662Z,132.90
2022-12-08T03:43:57.687Z,95.22
2022-12-08T03:48:53.425Z,116.85
2022-12-08T03:51:25.365Z,117.80
2022-12-08T03:53:53.270Z,120.55
2022-12-08T03:56:28.722Z,139.15
2022-12-08T03:58:55.764Z,125.57
2022-12-08T04:01:24.180Z,138.32
2022-12-08T04:03:51.673Z,140.57
2022-12-08T04:06:21.996Z,136.23
2022-12-08T04:08:51.639Z,186.50
2022-12-08T04:11:19.914Z,169.10
2022-12-08T04:13:47.868Z,178.90
2022-12-08T04:16:22.139Z,166.90
2022-12-08T04:18:49.739Z,190.48
2022-12-08T04:21:17.788Z,185.30
2022-12-08T04:23:46.336Z,178.88
2022-12-08T04:26:14.513Z,160.23
2022-12-08T04:28:44.713Z,156.20
2022-12-08T04:31:13.702Z,181.25
2022-12-08T04:33:40.729Z,149.02
2022-12-08T04:36:08.545Z,158.52
2022-12-08T04:38:35.603Z,160.82
2022-12-08T04:41:03.199Z,168.48
2022-12-08T04:43:30.309Z,168.88
2022-12-08T04:45:58.419Z,202.32
2022-12-08T04:48:25.466Z,168.00
2022-12-08T04:50:52.830Z,175.48
2022-12-08T04:53:20.274Z,167.05
2022-12-08T04:55:49.733Z,161.57
2022-12-08T04:58:19.853Z,162.90
2022-12-08T05:00:48.612Z,161.18
2022-12-08T05:03:28.123Z,151.20
2022-12-08T05:05:56.433Z,167.80
2022-12-08T05:08:23.680Z,172.73
2022-12-08T05:10:52.080Z,172.65
2022-12-08T05:13:24.614Z,174.23
2022-12-08T05:15:53.705Z,166.82
2022-12-08T05:18:27.039Z,173.85
2022-12-08T05:23:28.646Z,176.07
2022-12-08T05:25:56.771Z,182.65
2022-12-08T05:31:19.795Z,203.98
2022-12-08T05:34:03.700Z,214.95
2022-12-08T05:36:34.887Z,194.25
2022-12-08T05:42:07.492Z,199.90
2022-12-08T05:44:37.319Z,218.05
2022-12-08T05:47:08.814Z,198.13
2022-12-08T06:00:41.114Z,191.52
2022-12-08T06:03:11.470Z,205.48
2022-12-08T06:05:41.125Z,200.50
2022-12-08T06:08:08.944Z,186.32
2022-12-08T06:21:30.435Z,180.88
2022-12-08T06:26:50.831Z,189.48
2022-12-08T06:29:20.281Z,201.95
2022-12-08T06:32:00.351Z,178.05
2022-12-08T06:34:27.509Z,194.77
2022-12-08T06:39:37.451Z,203.15
2022-12-08T06:45:20.126Z,179.07
2022-12-08T06:47:49.387Z,168.88
2022-12-08T06:53:17.990Z,182.77
2022-12-08T06:56:00.252Z,169.63
2022-12-08T06:58:46.053Z,186.52
2022-12-08T07:01:26.124Z,188.25
2022-12-08T07:03:53.585Z,174.20
2022-12-08T07:09:25.810Z,183.07
2022-12-08T07:11:55.057Z,165.85
2022-12-08T07:14:27.021Z,161.95
2022-12-08T07:16:54.666Z,184.43
2022-12-08T07:19:22.886Z,191.73
2022-12-08T07:21:52.636Z,208.82
2022-12-08T07:24:44.739Z,240.23
2022-12-08T07:27:22.778Z,255.82
2022-12-08T07:35:17.797Z,262.60
2022-12-08T07:37:45.417Z,308.08
2022-12-08T07:42:56.697Z,442.50
2022-12-08T07:45:31.457Z,601.17
2022-12-08T07:47:59.410Z,446.52
2022-12-08T07:58:53.575Z,472.50
2022-12-08T08:01:33.357Z,457.52
2022-12-08T08:04:15.397Z,450.30
2022-12-08T08:12:30.114Z,343.55
2022-12-08T08:20:20.094Z,316.30
2022-12-08T08:28:40.800Z,267.38
2022-12-08T08:31:29.095Z,282.42
2022-12-08T08:34:13.409Z,251.02
2022-12-08T08:36:43.682Z,285.55
2022-12-08T08:39:12.541Z,257.80
2022-12-08T08:41:44.874Z,257.58
2022-12-08T08:46:55.355Z,257.13
2022-12-08T08:49:22.782Z,234.07
2022-12-08T09:02:40.959Z,205.20
2022-12-08T09:13:32.389Z,203.45
2022-12-08T09:16:12.923Z,248.07
2022-12-08T09:21:27.985Z,228.70
2022-12-08T09:24:08.436Z,195.45
2022-12-08T09:29:17.829Z,189.40
2022-12-08T09:34:28.907Z,162.55
2022-12-08T09:36:58.509Z,134.73
2022-12-08T09:39:28.593Z,142.52
2022-12-08T09:45:14.440Z,143.52
2022-12-08T09:48:09.643Z,129.98
2022-12-08T09:53:51.184Z,140.70
2022-12-08T09:56:25.354Z,117.63
2022-12-08T09:59:10.624Z,137.40
2022-12-08T10:01:55.053Z,133.23
2022-12-08T10:04:34.540Z,129.52
2022-12-08T10:13:38.665Z,95.60
2022-12-08T10:16:23.122Z,105.93
2022-12-08T10:19:23.474Z,118.72
2022-12-08T10:24:52.137Z,94.40
2022-12-08T10:30:03.448Z,32.60
2022-12-08T10:32:39.878Z,91.45
2022-12-08T10:35:08.453Z,77.28
2022-12-08T10:52:29.836Z,76.63
2022-12-08T10:55:08.706Z,38.40
2022-12-08T10:57:44.663Z,77.82
2022-12-08T11:03:09.193Z,60.83
2022-12-08T11:05:46.923Z,72.72
2022-12-08T11:10:58.193Z,67.95
2022-12-08T11:13:42.237Z,74.25
2022-12-08T11:19:28.650Z,77.95
2022-12-08T11:21:56.059Z,69.07
2022-12-08T11:29:36.340Z,77.10
2022-12-08T11:35:04.610Z,69.78
2022-12-08T11:37:53.205Z,96.03
2022-12-08T11:40:44.229Z,93.60
2022-12-08T11:43:39.830Z,87.72
2022-12-08T11:46:43.271Z,84.15
2022-12-08T11:52:54.510Z,73.07
2022-12-08T11:58:43.051Z,74.70
2022-12-08T12:11:52.675Z,86.13
2022-12-08T12:20:55.770Z,89.45
2022-12-08T12:26:38.349Z,88.10
2022-12-08T12:29:13.649Z,64.82
2022-12-08T12:31:47.675Z,65.97
2022-12-08T12:34:28.121Z,72.93
2022-12-08T12:37:23.478Z,70.43
2022-12-08T12:40:01.799Z,75.63
2022-12-08T12:42:52.080Z,73.18
2022-12-08T12:45:35.891Z,90.25
2022-12-08T12:48:24.343Z,77.03
2022-12-08T12:51:45.589Z,66.05
2022-12-08T12:57:27.787Z,69.28
2022-12-08T13:02:50.696Z,60.60
2022-12-08T13:05:33.768Z,69.95
2022-12-08T13:08:24.194Z,77.18
2022-12-08T13:11:11.485Z,70.95
2022-12-08T13:14:00.672Z,72.28
2022-12-08T13:16:36.659Z,67.57
2022-12-08T13:22:45.453Z,71.57
2022-12-08T13:25:47.798Z,64.13
2022-12-08T13:28:27.630Z,69.15
2022-12-08T13:39:47.407Z,50.30
2022-12-08T13:42:51.785Z,54.10
2022-12-08T13:57:10.478Z,44.35
2022-12-08T13:59:45.535Z,46.38
2022-12-08T14:05:47.517Z,47.83
2022-12-08T14:11:44.702Z,48.33
2022-12-08T14:15:01.225Z,37.00
2022-12-08T14:22:46.983Z,49.30
2022-12-08T14:25:17.047Z,43.67
2022-12-08T14:30:32.099Z,42.53
2022-12-08T14:35:56.165Z,46.33
2022-12-08T14:38:27.283Z,49.03
2022-12-08T14:41:14.428Z,44.33
2022-12-08T14:46:34.160Z,49.22
2022-12-08T14:49:07.039Z,51.75
2022-12-08T14:54:28.127Z,49.28
2022-12-08T15:05:22.463Z,50.00
2022-12-08T15:10:39.968Z,62.25
2022-12-08T15:13:10.137Z,55.72
2022-12-08T15:15:57.982Z,54.30
2022-12-08T15:18:39.941Z,58.20
2022-12-08T15:21:12.879Z,49.38
2022-12-08T15:23:45.087Z,46.40
2022-12-08T15:26:23.796Z,63.28
2022-12-08T15:28:51.100Z,51.95
2022-12-08T15:31:18.936Z,60.45
2022-12-08T15:33:46.082Z,48.58
2022-12-08T15:36:13.592Z,57.47
2022-12-08T15:38:40.641Z,53.03
2022-12-08T15:41:13.001Z,50.78
2022-12-08T15:43:41.804Z,52.55
2022-12-08T15:46:09.230Z,54.05
2022-12-08T15:48:37.926Z,59.33
2022-12-08T15:51:05.587Z,55.28
2022-12-08T15:53:33.242Z,49.90
2022-12-08T15:58:55.119Z,55.67
2022-12-08T16:01:24.017Z,56.75
2022-12-08T16:09:33.460Z,58.83
2022-12-08T16:12:19.719Z,53.25
2022-12-08T16:15:47.088Z,55.90
2022-12-08T16:17:34.972Z,51.38
2022-12-08T16:20:02.818Z,51.05
2022-12-08T16:25:21.482Z,39.08
2022-12-08T16:28:03.150Z,30.40
2022-12-08T16:30:36.018Z,24.90
2022-12-08T16:33:03.466Z,51.92
2022-12-08T16:35:30.892Z,40.97
2022-12-08T16:37:58.565Z,39.63
2022-12-08T16:40:25.748Z,67.57
2022-12-08T16:42:55.141Z,193.27
2022-12-08T16:48:49.923Z,81.68
2022-12-08T16:51:25.109Z,73.85
2022-12-08T16:53:55.609Z,75.40
2022-12-08T16:56:28.761Z,85.65
2022-12-08T16:58:59.982Z,99.15
2022-12-08T17:04:31.718Z,44.65
2022-12-08T17:06:59.476Z,63.75
2022-12-08T17:09:28.611Z,60.45
2022-12-08T17:12:03.256Z,61.78
2022-12-08T17:14:35.441Z,50.70
2022-12-08T17:17:03.013Z,81.75
2022-12-08T17:19:30.732Z,41.58
2022-12-08T17:21:57.722Z,84.45
2022-12-08T17:24:29.053Z,59.97
2022-12-08T17:27:00.040Z,115.30
2022-12-08T17:29:27.421Z,113.43
2022-12-08T17:31:55.381Z,93.78
2022-12-08T17:34:26.185Z,72.60
2022-12-08T17:36:54.520Z,64.13
2022-12-08T17:39:22.389Z,91.70
2022-12-08T17:41:49.762Z,83.13
2022-12-08T17:44:20.158Z,81.03
2022-12-08T17:47:07.212Z,85.75
2022-12-08T17:49:34.617Z,78.63
2022-12-08T17:52:05.182Z,97.13
2022-12-08T17:54:33.029Z,113.15
2022-12-08T17:57:00.176Z,146.15
2022-12-08T17:59:30.788Z,148.80
2022-12-08T18:01:58.940Z,99.88
2022-12-08T18:04:27.229Z,65.57
2022-12-08T18:06:54.992Z,67.28
2022-12-08T18:09:23.578Z,82.20
2022-12-08T18:11:52.045Z,98.63
2022-12-08T18:14:20.278Z,55.15
2022-12-08T18:16:48.161Z,77.05
2022-12-08T18:19:16.222Z,106.05
2022-12-08T18:21:43.561Z,94.38
2022-12-08T18:24:23.321Z,103.80
2022-12-08T18:26:52.486Z,77.05
2022-12-08T18:29:22.671Z,63.85
2022-12-08T18:31:52.450Z,67.20
2022-12-08T18:34:19.924Z,63.28
2022-12-08T18:36:47.676Z,70.20
2022-12-08T18:39:35.195Z,66.22
2022-12-08T18:42:22.869Z,71.40
2022-12-08T18:44:50.680Z,59.15
2022-12-08T18:47:18.588Z,73.93
2022-12-08T18:49:49.084Z,77.80
2022-12-08T18:52:22.726Z,74.93
2022-12-08T18:55:10.074Z,91.28
2022-12-08T18:57:48.107Z,129.88
2022-12-08T19:00:18.499Z,163.52
2022-12-08T19:02:46.038Z,121.47
2022-12-08T19:05:14.290Z,166.82
2022-12-08T19:07:42.834Z,152.45
2022-12-08T19:10:10.955Z,148.70
2022-12-08T19:12:38.073Z,186.77
2022-12-08T19:15:06.133Z,152.13
2022-12-08T19:17:33.395Z,126.32
2022-12-08T19:20:00.902Z,148.80
2022-12-08T19:22:27.891Z,177.75
2022-12-08T19:24:55.479Z,160.05
2022-12-08T19:27:23.336Z,147.55
2022-12-08T19:29:50.739Z,212.38
2022-12-08T19:32:17.817Z,161.75
2022-12-08T19:34:45.486Z,181.40
2022-12-08T19:37:13.101Z,199.38
2022-12-08T19:39:59.671Z,161.52
2022-12-08T19:42:45.729Z,268.15
2022-12-08T19:45:21.716Z,199.18
2022-12-08T19:47:48.877Z,211.23
2022-12-08T19:50:37.589Z,206.30
2022-12-08T19:53:06.104Z,195.60
2022-12-08T19:55:34.413Z,243.20
2022-12-08T19:58:02.082Z,233.00
2022-12-08T20:00:34.109Z,261.30
2022-12-08T20:03:02.325Z,228.45
2022-12-08T20:05:32.852Z,201.43
2022-12-08T20:08:07.497Z,203.43
2022-12-08T20:10:42.348Z,228.20
2022-12-08T20:13:31.125Z,154.38
2022-12-08T20:18:31.545Z,168.32
2022-12-08T20:20:59.638Z,236.25
2022-12-08T20:23:31.503Z,126.28
2022-12-08T20:26:00.227Z,192.63
2022-12-08T20:28:27.359Z,169.57
2022-12-08T20:31:00.054Z,234.70
2022-12-08T20:33:36.032Z,168.93
2022-12-08T20:36:08.204Z,188.65
2022-12-08T20:38:36.329Z,191.35
2022-12-08T20:41:16.713Z,159.52
2022-12-08T20:43:46.059Z,109.28
2022-12-08T20:46:17.529Z,139.13
2022-12-08T20:48:44.946Z,152.57
2022-12-08T20:51:17.226Z,192.40
2022-12-08T20:53:45.303Z,155.23
2022-12-08T20:56:20.326Z,150.48
2022-12-08T20:58:48.322Z,178.68
2022-12-08T21:01:18.260Z,158.35
2022-12-08T21:03:46.983Z,117.68
2022-12-08T21:06:15.185Z,149.27
2022-12-08T21:08:43.575Z,115.70
2022-12-08T21:13:39.515Z,108.88
2022-12-08T21:16:09.471Z,113.03
2022-12-08T21:18:39.615Z,170.20
2022-12-08T21:21:27.137Z,174.50
2022-12-08T21:23:57.647Z,137.27
2022-12-08T21:26:28.110Z,128.88
2022-12-08T21:28:55.621Z,120.40
2022-12-08T21:31:23.740Z,112.13
2022-12-08T21:33:51.093Z,124.75
2022-12-08T21:36:21.002Z,130.93
2022-12-08T21:38:48.381Z,111.07
2022-12-08T21:41:40.889Z,71.78
2022-12-08T21:44:10.313Z,46.47
2022-12-08T21:46:38.550Z,77.45
2022-12-08T21:49:07.282Z,83.28
2022-12-08T21:51:42.347Z,103.38
2022-12-08T21:54:16.743Z,81.07
2022-12-08T21:56:48.323Z,92.07
2022-12-08T21:59:16.410Z,64.65
2022-12-08T22:01:44.249Z,74.60
2022-12-08T22:04:27.289Z,50.85
2022-12-08T22:06:55.140Z,54.28
2022-12-08T22:09:24.368Z,78.30
2022-12-08T22:11:52.474Z,79.18
2022-12-08T22:14:20.095Z,73.90
2022-12-08T22:16:48.058Z,111.57
2022-12-08T22:19:17.369Z,85.30
2022-12-08T22:24:12.714Z,62.53
2022-12-08T22:26:48.356Z,50.30
2022-12-08T22:29:16.441Z,84.07
2022-12-08T22:31:46.266Z,59.05
2022-12-08T22:34:14.813Z,64.43
2022-12-08T22:36:43.279Z,90.85
2022-12-08T22:39:13.537Z,62.78
2022-12-08T22:41:40.930Z,84.40
2022-12-08T22:44:09.064Z,80.28
2022-12-08T22:46:37.602Z,87.22
2022-12-08T22:49:04.696Z,66.18
2022-12-08T22:51:32.081Z,96.78
2022-12-08T22:53:59.360Z,74.20
2022-12-08T22:56:30.675Z,67.85
2022-12-08T22:58:58.495Z,85.03
2022-12-08T23:01:29.995Z,80.75
2022-12-08T23:03:58.728Z,57.28
2022-12-08T23:06:28.097Z,82.53
2022-12-08T23:08:57.207Z,89.75
2022-12-08T23:11:27.988Z,89.50
2022-12-08T23:14:03.139Z,76.03
2022-12-08T23:16:30.793Z,80.95
2022-12-08T23:18:59.328Z,77.88
2022-12-08T23:21:27.063Z,90.13
2022-12-08T23:23:54.299Z,45.00
2022-12-08T23:26:28.085Z,57.25
2022-12-08T23:28:56.377Z,78.90
2022-12-08T23:31:24.855Z,88.85
2022-12-08T23:33:54.238Z,45.85
2022-12-08T23:36:26.343Z,79.18
2022-12-08T23:38:54.315Z,45.30
2022-12-08T23:41:22.090Z,56.63
2022-12-08T23:43:52.858Z,39.53
2022-12-08T23:46:21.973Z,51.95
2022-12-08T23:48:50.198Z,51.00
2022-12-08T23:51:18.512Z,49.55
2022-12-08T23:53:45.975Z,44.97
2022-12-08T23:56:15.868Z,34.47
2022-12-08T23:58:43.630Z,69.65
